sensor_id;sensor_type;location;lat;lon;timestamp;temperature;humidity
15564;DHT22;7883;52.554;13.364;2023-04-21T00:00:24;11.60;99.90
15564;DHT22;7883;52.554;13.364;2023-04-21T00:02:52;11.60;99.90
15564;DHT22;7883;52.554;13.364;2023-04-21T00:05:19;11.60;99.90
15564;DHT22;7883;52.554;13.364;2023-04-21T00:07:46;11.50;99.90
15564;DHT22;7883;52.554;13.364;2023-04-21T00:10:13;11.50;99.90
15564;DHT22;7883;52.554;13.364;2023-04-21T00:12:40;11.50;99.90
15564;DHT22;7883;52.554;13.364;2023-04-21T00:15:07;11.50;99.90
15564;DHT22;7883;52.554;13.364;2023-04-21T00:17:35;11.50;99.90
15564;DHT22;7883;52.554;13.364;2023-04-21T00:20:04;11.50;99.90
15564;DHT22;7883;52.554;13.364;2023-04-21T00:22:31;11.50;99.90
15564;DHT22;7883;52.554;13.364;2023-04-21T00:24:58;11.40;99.90
15564;DHT22;7883;52.554;13.364;2023-04-21T00:27:25;11.30;99.90
15564;DHT22;7883;52.554;13.364;2023-04-21T00:29:52;11.30;99.90
15564;DHT22;7883;52.554;13.364;2023-04-21T00:32:19;11.30;99.90
15564;DHT22;7883;52.554;13.364;2023-04-21T00:34:46;11.20;99.90
15564;DHT22;7883;52.554;13.364;2023-04-21T00:37:15;11.20;99.90
15564;DHT22;7883;52.554;13.364;2023-04-21T00:39:42;11.20;99.90
15564;DHT22;7883;52.554;13.364;2023-04-21T00:42:09;11.10;99.90
15564;DHT22;7883;52.554;13.364;2023-04-21T00:44:36;11.10;99.90
15564;DHT22;7883;52.554;13.364;2023-04-21T00:47:04;11.10;99.90
15564;DHT22;7883;52.554;13.364;2023-04-21T00:49:31;11.10;99.90
15564;DHT22;7883;52.554;13.364;2023-04-21T00:51:58;11.00;99.90
15564;DHT22;7883;52.554;13.364;2023-04-21T00:54:27;11.10;99.90
15564;DHT22;7883;52.554;13.364;2023-04-21T00:56:54;11.10;99.90
15564;DHT22;7883;52.554;13.364;2023-04-21T00:59:22;11.20;99.90
15564;DHT22;7883;52.554;13.364;2023-04-21T01:01:49;11.10;99.90
15564;DHT22;7883;52.554;13.364;2023-04-21T01:04:17;11.00;99.90
15564;DHT22;7883;52.554;13.364;2023-04-21T01:06:44;10.90;99.90
15564;DHT22;7883;52.554;13.364;2023-04-21T01:09:11;10.80;99.90
15564;DHT22;7883;52.554;13.364;2023-04-21T01:11:40;10.80;99.90
15564;DHT22;7883;52.554;13.364;2023-04-21T01:14:07;10.80;99.90
15564;DHT22;7883;52.554;13.364;2023-04-21T01:16:34;10.90;99.90
15564;DHT22;7883;52.554;13.364;2023-04-21T01:19:01;10.80;99.90
15564;DHT22;7883;52.554;13.364;2023-04-21T01:21:38;10.80;99.90
15564;DHT22;7883;52.554;13.364;2023-04-21T01:24:06;10.80;99.90
15564;DHT22;7883;52.554;13.364;2023-04-21T01:26:33;10.70;99.90
15564;DHT22;7883;52.554;13.364;2023-04-21T01:29:00;10.80;99.90
15564;DHT22;7883;52.554;13.364;2023-04-21T01:31:27;10.70;99.90
15564;DHT22;7883;52.554;13.364;2023-04-21T01:33:54;10.70;99.90
15564;DHT22;7883;52.554;13.364;2023-04-21T01:36:23;10.70;99.90
15564;DHT22;7883;52.554;13.364;2023-04-21T01:38:52;10.70;99.90
15564;DHT22;7883;52.554;13.364;2023-04-21T01:41:19;10.70;99.90
15564;DHT22;7883;52.554;13.364;2023-04-21T01:43:46;10.70;99.90
15564;DHT22;7883;52.554;13.364;2023-04-21T01:46:13;10.70;99.90
15564;DHT22;7883;52.554;13.364;2023-04-21T01:48:39;10.70;99.90
15564;DHT22;7883;52.554;13.364;2023-04-21T01:51:09;10.70;99.90
15564;DHT22;7883;52.554;13.364;2023-04-21T01:53:37;10.70;99.90
15564;DHT22;7883;52.554;13.364;2023-04-21T01:56:06;10.60;99.90
15564;DHT22;7883;52.554;13.364;2023-04-21T01:58:37;10.70;99.90
15564;DHT22;7883;52.554;13.364;2023-04-21T02:01:04;10.70;99.90
15564;DHT22;7883;52.554;13.364;2023-04-21T02:03:33;10.70;99.90
15564;DHT22;7883;52.554;13.364;2023-04-21T02:06:01;10.70;99.90
15564;DHT22;7883;52.554;13.364;2023-04-21T02:08:28;10.70;99.90
15564;DHT22;7883;52.554;13.364;2023-04-21T02:10:56;10.70;99.90
15564;DHT22;7883;52.554;13.364;2023-04-21T02:13:24;10.70;99.90
15564;DHT22;7883;52.554;13.364;2023-04-21T02:15:51;10.70;99.90
15564;DHT22;7883;52.554;13.364;2023-04-21T02:18:18;10.70;99.90
15564;DHT22;7883;52.554;13.364;2023-04-21T02:20:46;10.70;99.90
15564;DHT22;7883;52.554;13.364;2023-04-21T02:23:13;10.60;99.90
15564;DHT22;7883;52.554;13.364;2023-04-21T02:25:40;10.60;99.90
15564;DHT22;7883;52.554;13.364;2023-04-21T02:28:07;10.60;99.90
15564;DHT22;7883;52.554;13.364;2023-04-21T02:30:35;10.60;99.90
15564;DHT22;7883;52.554;13.364;2023-04-21T02:33:02;10.60;99.90
15564;DHT22;7883;52.554;13.364;2023-04-21T02:35:29;10.50;99.90
15564;DHT22;7883;52.554;13.364;2023-04-21T02:37:58;10.40;99.90
15564;DHT22;7883;52.554;13.364;2023-04-21T02:40:30;10.40;99.90
15564;DHT22;7883;52.554;13.364;2023-04-21T02:42:58;10.50;99.90
15564;DHT22;7883;52.554;13.364;2023-04-21T02:45:25;10.40;99.90
15564;DHT22;7883;52.554;13.364;2023-04-21T02:47:53;10.40;99.90
15564;DHT22;7883;52.554;13.364;2023-04-21T02:50:20;10.40;99.90
15564;DHT22;7883;52.554;13.364;2023-04-21T02:52:47;10.40;99.90
15564;DHT22;7883;52.554;13.364;2023-04-21T02:55:14;10.40;99.90
15564;DHT22;7883;52.554;13.364;2023-04-21T02:57:41;10.40;99.90
15564;DHT22;7883;52.554;13.364;2023-04-21T03:00:09;10.40;99.90
15564;DHT22;7883;52.554;13.364;2023-04-21T03:02:37;10.40;99.90
15564;DHT22;7883;52.554;13.364;2023-04-21T03:05:05;10.40;99.90
15564;DHT22;7883;52.554;13.364;2023-04-21T03:07:32;10.40;99.90
15564;DHT22;7883;52.554;13.364;2023-04-21T03:09:59;10.40;99.90
15564;DHT22;7883;52.554;13.364;2023-04-21T03:12:26;10.40;99.90
15564;DHT22;7883;52.554;13.364;2023-04-21T03:14:53;10.40;99.90
15564;DHT22;7883;52.554;13.364;2023-04-21T03:17:19;10.40;99.90
15564;DHT22;7883;52.554;13.364;2023-04-21T03:19:46;10.30;99.90
15564;DHT22;7883;52.554;13.364;2023-04-21T03:22:15;10.30;99.90
15564;DHT22;7883;52.554;13.364;2023-04-21T03:24:41;10.30;99.90
15564;DHT22;7883;52.554;13.364;2023-04-21T03:27:08;10.30;99.90
15564;DHT22;7883;52.554;13.364;2023-04-21T03:29:35;10.30;99.90
15564;DHT22;7883;52.554;13.364;2023-04-21T03:32:02;10.30;99.90
15564;DHT22;7883;52.554;13.364;2023-04-21T03:34:29;10.20;99.90
15564;DHT22;7883;52.554;13.364;2023-04-21T03:36:56;10.20;99.90
15564;DHT22;7883;52.554;13.364;2023-04-21T03:39:24;10.20;99.90
15564;DHT22;7883;52.554;13.364;2023-04-21T03:41:51;10.20;99.90
15564;DHT22;7883;52.554;13.364;2023-04-21T03:44:18;10.20;99.90
15564;DHT22;7883;52.554;13.364;2023-04-21T03:46:45;10.20;99.90
15564;DHT22;7883;52.554;13.364;2023-04-21T03:49:12;10.20;99.90
15564;DHT22;7883;52.554;13.364;2023-04-21T03:51:39;10.10;99.90
15564;DHT22;7883;52.554;13.364;2023-04-21T03:54:06;10.10;99.90
15564;DHT22;7883;52.554;13.364;2023-04-21T03:56:34;10.10;99.90
15564;DHT22;7883;52.554;13.364;2023-04-21T03:59:04;10.00;99.90
15564;DHT22;7883;52.554;13.364;2023-04-21T04:01:31;10.10;99.90
15564;DHT22;7883;52.554;13.364;2023-04-21T04:04:00;10.10;99.90
15564;DHT22;7883;52.554;13.364;2023-04-21T04:06:27;10.10;99.90
15564;DHT22;7883;52.554;13.364;2023-04-21T04:08:54;10.10;99.90
15564;DHT22;7883;52.554;13.364;2023-04-21T04:11:21;10.00;99.90
15564;DHT22;7883;52.554;13.364;2023-04-21T04:13:49;10.00;99.90
15564;DHT22;7883;52.554;13.364;2023-04-21T04:16:16;10.00;99.90
15564;DHT22;7883;52.554;13.364;2023-04-21T04:18:43;10.10;99.90
15564;DHT22;7883;52.554;13.364;2023-04-21T04:21:10;10.00;99.90
15564;DHT22;7883;52.554;13.364;2023-04-21T04:23:37;10.00;99.90
15564;DHT22;7883;52.554;13.364;2023-04-21T04:26:04;10.00;99.90
15564;DHT22;7883;52.554;13.364;2023-04-21T04:28:31;10.00;99.90
15564;DHT22;7883;52.554;13.364;2023-04-21T04:30:59;10.00;99.90
15564;DHT22;7883;52.554;13.364;2023-04-21T04:33:27;10.00;99.90
15564;DHT22;7883;52.554;13.364;2023-04-21T04:35:54;10.10;99.90
15564;DHT22;7883;52.554;13.364;2023-04-21T04:38:23;10.00;99.90
15564;DHT22;7883;52.554;13.364;2023-04-21T04:40:53;10.10;99.90
15564;DHT22;7883;52.554;13.364;2023-04-21T04:43:19;10.10;99.90
15564;DHT22;7883;52.554;13.364;2023-04-21T04:45:46;10.20;99.90
15564;DHT22;7883;52.554;13.364;2023-04-21T04:48:15;10.20;99.90
15564;DHT22;7883;52.554;13.364;2023-04-21T04:50:42;10.50;99.90
15564;DHT22;7883;52.554;13.364;2023-04-21T04:53:09;11.50;99.90
15564;DHT22;7883;52.554;13.364;2023-04-21T04:55:36;12.40;99.90
15564;DHT22;7883;52.554;13.364;2023-04-21T04:58:03;13.20;99.90
15564;DHT22;7883;52.554;13.364;2023-04-21T05:00:31;13.30;99.90
15564;DHT22;7883;52.554;13.364;2023-04-21T05:02:58;13.60;99.90
15564;DHT22;7883;52.554;13.364;2023-04-21T05:05:30;13.90;99.90
15564;DHT22;7883;52.554;13.364;2023-04-21T05:07:57;13.80;99.90
15564;DHT22;7883;52.554;13.364;2023-04-21T05:10:24;14.10;99.90
15564;DHT22;7883;52.554;13.364;2023-04-21T05:12:51;14.30;99.90
15564;DHT22;7883;52.554;13.364;2023-04-21T05:15:19;15.00;99.90
15564;DHT22;7883;52.554;13.364;2023-04-21T05:17:47;14.50;99.90
15564;DHT22;7883;52.554;13.364;2023-04-21T05:20:14;14.60;99.90
15564;DHT22;7883;52.554;13.364;2023-04-21T05:22:42;15.30;99.90
15564;DHT22;7883;52.554;13.364;2023-04-21T05:25:10;15.10;99.90
15564;DHT22;7883;52.554;13.364;2023-04-21T05:27:40;13.10;99.90
15564;DHT22;7883;52.554;13.364;2023-04-21T05:30:08;12.30;99.90
15564;DHT22;7883;52.554;13.364;2023-04-21T05:32:35;11.70;99.90
15564;DHT22;7883;52.554;13.364;2023-04-21T05:35:03;11.40;99.90
15564;DHT22;7883;52.554;13.364;2023-04-21T05:37:30;11.40;99.90
15564;DHT22;7883;52.554;13.364;2023-04-21T05:39:58;11.40;99.90
15564;DHT22;7883;52.554;13.364;2023-04-21T05:42:25;11.40;99.90
15564;DHT22;7883;52.554;13.364;2023-04-21T05:44:53;11.40;99.90
15564;DHT22;7883;52.554;13.364;2023-04-21T05:47:19;11.50;99.90
15564;DHT22;7883;52.554;13.364;2023-04-21T05:49:46;11.30;99.90
15564;DHT22;7883;52.554;13.364;2023-04-21T05:52:18;11.40;99.90
15564;DHT22;7883;52.554;13.364;2023-04-21T05:54:45;11.30;99.90
15564;DHT22;7883;52.554;13.364;2023-04-21T05:57:13;11.30;99.90
15564;DHT22;7883;52.554;13.364;2023-04-21T05:59:42;11.30;99.90
15564;DHT22;7883;52.554;13.364;2023-04-21T06:02:09;11.40;99.90
15564;DHT22;7883;52.554;13.364;2023-04-21T06:04:36;11.40;99.90
15564;DHT22;7883;52.554;13.364;2023-04-21T06:07:04;11.40;99.90
15564;DHT22;7883;52.554;13.364;2023-04-21T06:09:32;11.50;99.90
15564;DHT22;7883;52.554;13.364;2023-04-21T06:11:59;11.50;99.90
15564;DHT22;7883;52.554;13.364;2023-04-21T06:14:28;11.60;99.90
15564;DHT22;7883;52.554;13.364;2023-04-21T06:16:55;11.60;99.90
15564;DHT22;7883;52.554;13.364;2023-04-21T06:19:22;11.70;99.90
15564;DHT22;7883;52.554;13.364;2023-04-21T06:21:49;11.80;99.90
15564;DHT22;7883;52.554;13.364;2023-04-21T06:24:16;11.80;99.90
15564;DHT22;7883;52.554;13.364;2023-04-21T06:26:49;11.90;99.90
15564;DHT22;7883;52.554;13.364;2023-04-21T06:29:16;12.00;99.90
15564;DHT22;7883;52.554;13.364;2023-04-21T06:31:45;12.00;99.90
15564;DHT22;7883;52.554;13.364;2023-04-21T06:34:11;12.00;99.90
15564;DHT22;7883;52.554;13.364;2023-04-21T06:36:39;12.00;99.90
15564;DHT22;7883;52.554;13.364;2023-04-21T06:39:06;12.10;99.90
15564;DHT22;7883;52.554;13.364;2023-04-21T06:41:32;12.20;99.90
15564;DHT22;7883;52.554;13.364;2023-04-21T06:43:59;12.30;99.90
15564;DHT22;7883;52.554;13.364;2023-04-21T06:46:26;12.40;99.90
15564;DHT22;7883;52.554;13.364;2023-04-21T06:48:54;12.50;99.90
15564;DHT22;7883;52.554;13.364;2023-04-21T06:51:21;12.60;99.90
15564;DHT22;7883;52.554;13.364;2023-04-21T06:53:48;12.70;99.90
15564;DHT22;7883;52.554;13.364;2023-04-21T06:56:15;12.70;99.90
15564;DHT22;7883;52.554;13.364;2023-04-21T06:58:42;12.70;99.90
15564;DHT22;7883;52.554;13.364;2023-04-21T07:01:11;12.70;99.90
15564;DHT22;7883;52.554;13.364;2023-04-21T07:03:38;12.80;99.90
15564;DHT22;7883;52.554;13.364;2023-04-21T07:06:07;12.90;99.90
15564;DHT22;7883;52.554;13.364;2023-04-21T07:08:34;13.00;99.90
15564;DHT22;7883;52.554;13.364;2023-04-21T07:11:01;13.00;99.90
15564;DHT22;7883;52.554;13.364;2023-04-21T07:13:27;13.00;99.90
15564;DHT22;7883;52.554;13.364;2023-04-21T07:15:54;13.10;99.90
15564;DHT22;7883;52.554;13.364;2023-04-21T07:18:21;13.20;99.90
15564;DHT22;7883;52.554;13.364;2023-04-21T07:20:48;13.30;99.90
15564;DHT22;7883;52.554;13.364;2023-04-21T07:23:17;13.40;99.90
15564;DHT22;7883;52.554;13.364;2023-04-21T07:25:44;13.40;99.90
15564;DHT22;7883;52.554;13.364;2023-04-21T07:28:11;13.40;99.90
15564;DHT22;7883;52.554;13.364;2023-04-21T07:30:39;13.50;99.90
15564;DHT22;7883;52.554;13.364;2023-04-21T07:33:06;13.60;99.90
15564;DHT22;7883;52.554;13.364;2023-04-21T07:35:34;13.70;99.90
15564;DHT22;7883;52.554;13.364;2023-04-21T07:38:01;13.80;99.90
15564;DHT22;7883;52.554;13.364;2023-04-21T07:40:29;13.80;99.90
15564;DHT22;7883;52.554;13.364;2023-04-21T07:42:56;13.90;99.90
15564;DHT22;7883;52.554;13.364;2023-04-21T07:45:23;13.90;99.90
15564;DHT22;7883;52.554;13.364;2023-04-21T07:47:51;13.90;99.90
15564;DHT22;7883;52.554;13.364;2023-04-21T07:50:17;14.00;99.90
15564;DHT22;7883;52.554;13.364;2023-04-21T07:52:44;14.10;99.90
15564;DHT22;7883;52.554;13.364;2023-04-21T07:55:12;14.10;99.90
15564;DHT22;7883;52.554;13.364;2023-04-21T07:57:41;14.20;99.90
15564;DHT22;7883;52.554;13.364;2023-04-21T08:00:10;14.30;99.90
15564;DHT22;7883;52.554;13.364;2023-04-21T08:02:37;14.40;99.90
15564;DHT22;7883;52.554;13.364;2023-04-21T08:05:05;14.50;99.90
15564;DHT22;7883;52.554;13.364;2023-04-21T08:07:32;14.60;99.90
15564;DHT22;7883;52.554;13.364;2023-04-21T08:09:59;14.70;99.90
15564;DHT22;7883;52.554;13.364;2023-04-21T08:12:27;14.80;99.90
15564;DHT22;7883;52.554;13.364;2023-04-21T08:14:55;14.80;99.90
15564;DHT22;7883;52.554;13.364;2023-04-21T08:17:22;14.80;99.90
15564;DHT22;7883;52.554;13.364;2023-04-21T08:19:49;14.80;99.90
15564;DHT22;7883;52.554;13.364;2023-04-21T08:22:16;14.80;99.90
15564;DHT22;7883;52.554;13.364;2023-04-21T08:24:43;14.90;99.90
15564;DHT22;7883;52.554;13.364;2023-04-21T08:27:10;15.00;99.90
15564;DHT22;7883;52.554;13.364;2023-04-21T08:29:37;15.00;99.90
15564;DHT22;7883;52.554;13.364;2023-04-21T08:32:05;15.10;99.90
15564;DHT22;7883;52.554;13.364;2023-04-21T08:34:33;15.10;99.90
15564;DHT22;7883;52.554;13.364;2023-04-21T08:37:00;15.20;99.90
15564;DHT22;7883;52.554;13.364;2023-04-21T08:39:27;15.20;99.90
15564;DHT22;7883;52.554;13.364;2023-04-21T08:41:55;15.30;99.90
15564;DHT22;7883;52.554;13.364;2023-04-21T08:44:23;15.40;99.90
15564;DHT22;7883;52.554;13.364;2023-04-21T08:46:50;15.60;99.90
15564;DHT22;7883;52.554;13.364;2023-04-21T08:49:20;15.60;99.90
15564;DHT22;7883;52.554;13.364;2023-04-21T08:51:48;15.70;99.90
15564;DHT22;7883;52.554;13.364;2023-04-21T08:54:15;15.70;99.90
15564;DHT22;7883;52.554;13.364;2023-04-21T08:56:42;15.80;99.90
15564;DHT22;7883;52.554;13.364;2023-04-21T08:59:09;15.80;99.90
15564;DHT22;7883;52.554;13.364;2023-04-21T09:02:10;15.80;99.90
15564;DHT22;7883;52.554;13.364;2023-04-21T09:04:41;15.80;99.90
15564;DHT22;7883;52.554;13.364;2023-04-21T09:07:09;15.90;99.90
15564;DHT22;7883;52.554;13.364;2023-04-21T09:09:51;15.90;99.90
15564;DHT22;7883;52.554;13.364;2023-04-21T09:12:18;16.00;99.90
15564;DHT22;7883;52.554;13.364;2023-04-21T09:14:48;16.10;99.90
15564;DHT22;7883;52.554;13.364;2023-04-21T09:17:16;16.10;99.90
15564;DHT22;7883;52.554;13.364;2023-04-21T09:19:45;16.30;99.90
15564;DHT22;7883;52.554;13.364;2023-04-21T09:22:14;16.30;99.90
15564;DHT22;7883;52.554;13.364;2023-04-21T09:24:45;16.40;99.90
15564;DHT22;7883;52.554;13.364;2023-04-21T09:27:14;16.40;99.90
15564;DHT22;7883;52.554;13.364;2023-04-21T09:29:44;16.40;99.90
15564;DHT22;7883;52.554;13.364;2023-04-21T09:32:16;16.50;99.90
15564;DHT22;7883;52.554;13.364;2023-04-21T09:34:45;16.70;99.90
15564;DHT22;7883;52.554;13.364;2023-04-21T09:37:13;16.70;99.90
15564;DHT22;7883;52.554;13.364;2023-04-21T09:39:45;16.90;99.90
15564;DHT22;7883;52.554;13.364;2023-04-21T09:42:12;16.90;99.90
15564;DHT22;7883;52.554;13.364;2023-04-21T09:44:39;16.90;99.90
15564;DHT22;7883;52.554;13.364;2023-04-21T09:47:10;16.90;99.90
15564;DHT22;7883;52.554;13.364;2023-04-21T09:49:38;17.00;99.90
15564;DHT22;7883;52.554;13.364;2023-04-21T09:52:11;17.00;99.90
15564;DHT22;7883;52.554;13.364;2023-04-21T09:54:47;17.20;99.90
15564;DHT22;7883;52.554;13.364;2023-04-21T09:57:20;17.10;99.90
15564;DHT22;7883;52.554;13.364;2023-04-21T09:59:53;17.10;99.90
15564;DHT22;7883;52.554;13.364;2023-04-21T10:02:24;17.20;99.90
15564;DHT22;7883;52.554;13.364;2023-04-21T10:04:52;17.20;99.90
15564;DHT22;7883;52.554;13.364;2023-04-21T10:07:21;17.30;99.90
15564;DHT22;7883;52.554;13.364;2023-04-21T10:09:51;17.30;99.90
15564;DHT22;7883;52.554;13.364;2023-04-21T10:12:20;17.50;99.90
15564;DHT22;7883;52.554;13.364;2023-04-21T10:14:50;17.60;99.90
15564;DHT22;7883;52.554;13.364;2023-04-21T10:17:17;17.70;99.90
15564;DHT22;7883;52.554;13.364;2023-04-21T10:19:48;17.70;99.90
15564;DHT22;7883;52.554;13.364;2023-04-21T10:22:27;17.70;99.90
15564;DHT22;7883;52.554;13.364;2023-04-21T10:24:55;17.80;99.90
15564;DHT22;7883;52.554;13.364;2023-04-21T10:27:32;17.90;99.90
15564;DHT22;7883;52.554;13.364;2023-04-21T10:30:00;18.00;99.90
15564;DHT22;7883;52.554;13.364;2023-04-21T10:32:41;18.00;99.90
15564;DHT22;7883;52.554;13.364;2023-04-21T10:35:10;18.00;99.90
15564;DHT22;7883;52.554;13.364;2023-04-21T10:37:39;18.10;99.90
15564;DHT22;7883;52.554;13.364;2023-04-21T10:40:33;18.10;99.90
15564;DHT22;7883;52.554;13.364;2023-04-21T10:43:03;18.20;99.90
15564;DHT22;7883;52.554;13.364;2023-04-21T10:45:30;18.50;99.90
15564;DHT22;7883;52.554;13.364;2023-04-21T10:47:59;18.40;99.90
15564;DHT22;7883;52.554;13.364;2023-04-21T10:50:30;18.30;99.90
15564;DHT22;7883;52.554;13.364;2023-04-21T10:53:07;18.30;99.90
15564;DHT22;7883;52.554;13.364;2023-04-21T10:55:36;18.30;99.90
15564;DHT22;7883;52.554;13.364;2023-04-21T10:58:04;18.40;99.90
15564;DHT22;7883;52.554;13.364;2023-04-21T11:00:34;18.40;99.90
15564;DHT22;7883;52.554;13.364;2023-04-21T11:03:04;18.50;99.90
15564;DHT22;7883;52.554;13.364;2023-04-21T11:05:34;18.50;99.90
15564;DHT22;7883;52.554;13.364;2023-04-21T11:08:09;18.50;99.90
15564;DHT22;7883;52.554;13.364;2023-04-21T11:10:49;18.50;99.90
15564;DHT22;7883;52.554;13.364;2023-04-21T11:13:16;18.50;99.90
15564;DHT22;7883;52.554;13.364;2023-04-21T11:15:55;18.70;99.90
15564;DHT22;7883;52.554;13.364;2023-04-21T11:18:36;18.70;99.90
15564;DHT22;7883;52.554;13.364;2023-04-21T11:21:14;18.80;99.90
15564;DHT22;7883;52.554;13.364;2023-04-21T11:23:51;18.80;99.90
15564;DHT22;7883;52.554;13.364;2023-04-21T11:26:28;18.80;99.90
15564;DHT22;7883;52.554;13.364;2023-04-21T11:28:59;18.80;99.90
15564;DHT22;7883;52.554;13.364;2023-04-21T11:31:27;18.80;99.90
15564;DHT22;7883;52.554;13.364;2023-04-21T11:33:55;18.90;99.90
15564;DHT22;7883;52.554;13.364;2023-04-21T11:36:22;18.90;99.90
15564;DHT22;7883;52.554;13.364;2023-04-21T11:38:51;18.90;99.90
15564;DHT22;7883;52.554;13.364;2023-04-21T11:41:20;18.90;99.90
15564;DHT22;7883;52.554;13.364;2023-04-21T11:43:47;18.80;99.90
15564;DHT22;7883;52.554;13.364;2023-04-21T11:46:17;18.80;99.90
15564;DHT22;7883;52.554;13.364;2023-04-21T11:48:44;18.90;99.90
15564;DHT22;7883;52.554;13.364;2023-04-21T11:51:15;18.90;99.90
15564;DHT22;7883;52.554;13.364;2023-04-21T11:53:45;19.00;99.90
15564;DHT22;7883;52.554;13.364;2023-04-21T11:56:16;19.10;99.90
15564;DHT22;7883;52.554;13.364;2023-04-21T11:58:43;19.00;99.90
15564;DHT22;7883;52.554;13.364;2023-04-21T12:01:13;19.00;99.90
15564;DHT22;7883;52.554;13.364;2023-04-21T12:03:41;18.90;99.90
15564;DHT22;7883;52.554;13.364;2023-04-21T12:06:10;19.00;99.90
15564;DHT22;7883;52.554;13.364;2023-04-21T12:08:39;19.20;99.90
15564;DHT22;7883;52.554;13.364;2023-04-21T12:11:06;19.40;99.90
15564;DHT22;7883;52.554;13.364;2023-04-21T12:13:35;19.30;99.90
15564;DHT22;7883;52.554;13.364;2023-04-21T12:16:06;19.30;99.90
15564;DHT22;7883;52.554;13.364;2023-04-21T12:18:35;19.30;99.90
15564;DHT22;7883;52.554;13.364;2023-04-21T12:21:02;19.40;99.90
15564;DHT22;7883;52.554;13.364;2023-04-21T12:23:31;19.40;99.90
15564;DHT22;7883;52.554;13.364;2023-04-21T12:25:59;19.50;99.90
15564;DHT22;7883;52.554;13.364;2023-04-21T12:28:28;19.60;99.90
15564;DHT22;7883;52.554;13.364;2023-04-21T12:31:00;19.70;99.90
15564;DHT22;7883;52.554;13.364;2023-04-21T12:33:30;19.70;99.90
15564;DHT22;7883;52.554;13.364;2023-04-21T12:35:58;19.60;99.90
15564;DHT22;7883;52.554;13.364;2023-04-21T12:38:25;19.40;99.90
15564;DHT22;7883;52.554;13.364;2023-04-21T12:40:52;19.30;99.90
15564;DHT22;7883;52.554;13.364;2023-04-21T12:43:19;19.40;99.90
15564;DHT22;7883;52.554;13.364;2023-04-21T12:45:47;19.50;99.90
15564;DHT22;7883;52.554;13.364;2023-04-21T12:48:15;19.70;99.90
15564;DHT22;7883;52.554;13.364;2023-04-21T12:50:42;19.60;99.90
15564;DHT22;7883;52.554;13.364;2023-04-21T12:53:11;19.60;99.90
15564;DHT22;7883;52.554;13.364;2023-04-21T12:55:38;19.60;99.90
15564;DHT22;7883;52.554;13.364;2023-04-21T12:58:06;19.70;99.90
15564;DHT22;7883;52.554;13.364;2023-04-21T13:00:33;19.70;99.90
15564;DHT22;7883;52.554;13.364;2023-04-21T13:03:01;19.80;99.90
15564;DHT22;7883;52.554;13.364;2023-04-21T13:05:31;19.70;99.90
15564;DHT22;7883;52.554;13.364;2023-04-21T13:08:05;19.80;99.90
15564;DHT22;7883;52.554;13.364;2023-04-21T13:10:37;19.80;99.90
15564;DHT22;7883;52.554;13.364;2023-04-21T13:13:10;19.80;99.90
15564;DHT22;7883;52.554;13.364;2023-04-21T13:15:40;19.80;99.90
15564;DHT22;7883;52.554;13.364;2023-04-21T13:18:08;19.80;99.90
15564;DHT22;7883;52.554;13.364;2023-04-21T13:20:38;19.80;99.90
15564;DHT22;7883;52.554;13.364;2023-04-21T13:23:06;19.80;99.90
15564;DHT22;7883;52.554;13.364;2023-04-21T13:25:36;19.80;99.90
15564;DHT22;7883;52.554;13.364;2023-04-21T13:28:09;19.80;99.90
15564;DHT22;7883;52.554;13.364;2023-04-21T13:30:38;19.70;99.90
15564;DHT22;7883;52.554;13.364;2023-04-21T13:33:06;19.80;99.90
15564;DHT22;7883;52.554;13.364;2023-04-21T13:35:33;19.80;99.90
15564;DHT22;7883;52.554;13.364;2023-04-21T13:38:01;19.80;99.90
15564;DHT22;7883;52.554;13.364;2023-04-21T13:40:34;19.70;99.90
15564;DHT22;7883;52.554;13.364;2023-04-21T13:43:03;19.70;99.90
15564;DHT22;7883;52.554;13.364;2023-04-21T13:45:30;19.70;99.90
15564;DHT22;7883;52.554;13.364;2023-04-21T13:47:57;19.80;99.90
15564;DHT22;7883;52.554;13.364;2023-04-21T13:50:24;19.80;99.90
15564;DHT22;7883;52.554;13.364;2023-04-21T13:52:51;19.80;99.90
15564;DHT22;7883;52.554;13.364;2023-04-21T13:55:19;19.70;99.90
15564;DHT22;7883;52.554;13.364;2023-04-21T13:57:46;19.60;99.90
15564;DHT22;7883;52.554;13.364;2023-04-21T14:00:14;19.50;99.90
15564;DHT22;7883;52.554;13.364;2023-04-21T14:02:41;19.40;99.90
15564;DHT22;7883;52.554;13.364;2023-04-21T14:05:08;19.40;99.90
15564;DHT22;7883;52.554;13.364;2023-04-21T14:07:36;19.50;99.90
15564;DHT22;7883;52.554;13.364;2023-04-21T14:10:04;19.60;99.90
15564;DHT22;7883;52.554;13.364;2023-04-21T14:12:33;19.70;99.90
15564;DHT22;7883;52.554;13.364;2023-04-21T14:15:00;19.70;99.90
15564;DHT22;7883;52.554;13.364;2023-04-21T14:17:27;19.70;99.90
15564;DHT22;7883;52.554;13.364;2023-04-21T14:19:53;19.70;99.90
15564;DHT22;7883;52.554;13.364;2023-04-21T14:22:20;19.80;99.90
15564;DHT22;7883;52.554;13.364;2023-04-21T14:24:47;19.90;99.90
15564;DHT22;7883;52.554;13.364;2023-04-21T14:27:15;20.00;99.90
15564;DHT22;7883;52.554;13.364;2023-04-21T14:29:43;19.80;99.90
15564;DHT22;7883;52.554;13.364;2023-04-21T14:32:10;19.80;99.90
15564;DHT22;7883;52.554;13.364;2023-04-21T14:34:37;19.80;99.90
15564;DHT22;7883;52.554;13.364;2023-04-21T14:37:04;19.80;99.90
15564;DHT22;7883;52.554;13.364;2023-04-21T14:39:31;19.80;99.90
15564;DHT22;7883;52.554;13.364;2023-04-21T14:41:58;19.80;99.90
15564;DHT22;7883;52.554;13.364;2023-04-21T14:44:26;19.70;99.90
15564;DHT22;7883;52.554;13.364;2023-04-21T14:46:54;19.70;99.90
15564;DHT22;7883;52.554;13.364;2023-04-21T14:49:21;19.70;99.90
15564;DHT22;7883;52.554;13.364;2023-04-21T14:51:48;19.80;99.90
15564;DHT22;7883;52.554;13.364;2023-04-21T14:54:16;19.80;99.90
15564;DHT22;7883;52.554;13.364;2023-04-21T14:56:45;19.80;99.90
15564;DHT22;7883;52.554;13.364;2023-04-21T14:59:12;19.70;99.90
15564;DHT22;7883;52.554;13.364;2023-04-21T15:01:39;19.70;99.90
15564;DHT22;7883;52.554;13.364;2023-04-21T15:04:07;19.70;99.90
15564;DHT22;7883;52.554;13.364;2023-04-21T15:06:34;19.60;99.90
15564;DHT22;7883;52.554;13.364;2023-04-21T15:09:01;19.60;99.90
15564;DHT22;7883;52.554;13.364;2023-04-21T15:11:29;19.60;99.90
15564;DHT22;7883;52.554;13.364;2023-04-21T15:13:57;19.60;99.90
15564;DHT22;7883;52.554;13.364;2023-04-21T15:16:24;19.50;99.90
15564;DHT22;7883;52.554;13.364;2023-04-21T15:18:51;19.60;99.90
15564;DHT22;7883;52.554;13.364;2023-04-21T15:21:21;19.50;99.90
15564;DHT22;7883;52.554;13.364;2023-04-21T15:23:49;19.50;99.90
15564;DHT22;7883;52.554;13.364;2023-04-21T15:26:16;19.50;99.90
15564;DHT22;7883;52.554;13.364;2023-04-21T15:28:43;19.50;99.90
15564;DHT22;7883;52.554;13.364;2023-04-21T15:31:10;19.50;99.90
15564;DHT22;7883;52.554;13.364;2023-04-21T15:33:37;19.40;99.90
15564;DHT22;7883;52.554;13.364;2023-04-21T15:36:05;19.30;99.90